ニューヨーク/JFK の空港の天気 - METARとTAF

ジョン・F・ケネディ国際空港 ( KJFK / JFK ) - アメリカ ニューヨーク州ニューヨーク
飛行場実況気象(Metar)
観測時間08/16 10:51 EDT (08/16 14:51 UTC)
風向・風速北西 4m/s
視程10km以上
天気現象
全天の4割程度の雲 雲底高度 6710m
全天の8割程度の雲 雲底高度 7920m
気温30.6℃
湿度57%
気圧1018.2hPa
METARKJFK 161451Z 31007KT 10SM SCT220 BKN260 31/21 A3007 RMK AO2 SLP182 T03060211 51006
過去の天気等 Google飛行場航空写真 Wunderground天気予報

過去48時間のMETAR

飛行場予報(TAF)
発表時間: 8/16 11:17 EDT (8/16 15:17 UTC)
予報対象時間: 16日11時 EDT ~ 17日14時 EDT
風向・風速北西 5m/s
視程10km以上
全天の8割程度の雲 雲底高度 7620m
16日12時 EDT から
風向・風速南西 5m/s
視程10km以上
少しの雲 雲底高度 1520m
全天の4割程度の雲 雲底高度 6100m
16日14時 EDT から
風向・風速南南西 6m/s
視程10km以上
少しの雲 雲底高度 1520m
全天の4割程度の雲 雲底高度 6100m
16日16時 EDT から
風向・風速南 7m/s
視程10km以上
少しの雲 雲底高度 1520m
全天の4割程度の雲 雲底高度 6100m
16日21時 EDT から
風向・風速南南西 5m/s
視程10km以上
少しの雲 雲底高度 1520m
全天の4割程度の雲 雲底高度 6100m
17日0時 EDT から
風向・風速西南西 3m/s
視程10km以上
少しの雲 雲底高度 1520m
全天の4割程度の雲 雲底高度 6100m
17日9時 EDT から
風向・風速南南西 5m/s
視程10km以上
少しの雲 雲底高度 1520m
全天の4割程度の雲 雲底高度 4570m
KJFK 161517Z 1615/1718 31010KT P6SM BKN250
FM161600 23010KT P6SM FEW050 SCT200
FM161800 20011KT P6SM FEW050 SCT200
FM162000 19014KT P6SM FEW050 SCT200
FM170100 21009KT P6SM FEW050 SCT200
FM170400 24005KT P6SM FEW050 SCT200
FM171300 20009KT P6SM FEW050 SCT150